VICI – Dividend Returns, History & Calculator
Dividend Data
Price Data
Growth Rates
Total Returns
Fair Value
Financial Metrics
Company Info
VICI 10-yr Total Return ($10,000 invested)
This analysis of VICI demonstrates the power of dividend reinvestment over a 10-year period with a $10,000 initial investment. The dividend reinvestment strategy delivered a 11.5% CAGR, representing strong long-term performance. The DRIP strategy provided 20% more total return compared to collecting dividends as cash, highlighting the compounding effect of reinvestment.
| Date | With DRIP | No DRIP | DRIP Advantage | Dividend |
|---|---|---|---|---|
| 2018-03-28 | $10,088 | $10,088 | $0 | $0.160 |
| 2018-06-27 | $11,453 | $11,441 | $12 | $0.263 |
| 2018-09-27 | $11,989 | $11,966 | $23 | $0.288 |
| 2018-12-27 | $10,565 | $10,591 | $-26 | $0.288 |
| 2019-03-28 | $12,717 | $12,637 | $80 | $0.288 |
| 2019-06-27 | $12,832 | $12,745 | $88 | $0.288 |
| 2019-09-26 | $13,476 | $13,340 | $135 | $0.298 |
| 2019-12-26 | $15,169 | $14,888 | $281 | $0.298 |
| 2020-03-30 | $9,902 | $10,131 | $-229 | $0.298 |
| 2020-06-29 | $12,530 | $12,461 | $69 | $0.298 |
| 2020-09-29 | $14,861 | $14,498 | $363 | $0.330 |
| 2020-12-22 | $16,684 | $16,068 | $616 | $0.330 |
| 2021-03-24 | $17,540 | $16,796 | $743 | $0.330 |
| 2021-06-23 | $20,627 | $19,391 | $1,236 | $0.330 |
| 2021-09-23 | $19,995 | $18,865 | $1,130 | $0.360 |
| 2021-12-22 | $19,289 | $18,285 | $1,004 | $0.360 |
| 2022-03-23 | $18,554 | $17,689 | $865 | $0.360 |
| 2022-06-22 | $20,256 | $19,051 | $1,204 | $0.360 |
| 2022-09-21 | $22,421 | $20,765 | $1,656 | $0.390 |
| 2022-12-21 | $23,226 | $21,394 | $1,832 | $0.390 |
| 2023-03-22 | $21,774 | $20,272 | $1,502 | $0.390 |
| 2023-06-21 | $22,628 | $20,923 | $1,704 | $0.390 |
| 2023-09-20 | $22,580 | $20,888 | $1,693 | $0.415 |
| 2023-12-20 | $23,225 | $21,367 | $1,858 | $0.415 |
| 2024-03-20 | $21,818 | $20,335 | $1,483 | $0.415 |
| 2024-06-18 | $21,595 | $20,174 | $1,421 | $0.415 |
| 2024-09-18 | $25,730 | $23,120 | $2,610 | $0.433 |
| 2024-12-17 | $23,724 | $21,709 | $2,015 | $0.433 |
| 2025-03-20 | $25,614 | $23,019 | $2,595 | $0.433 |
| 2025-06-18 | $26,216 | $23,431 | $2,785 | $0.433 |
| 2025-09-18 | $26,411 | $23,563 | $2,848 | $0.450 |
| 2025-12-17 | $23,714 | $21,767 | $1,947 | $0.450 |
| 2026-03-19 | $23,747 | $21,789 | $1,958 | $0.450 |
Total Return with and without DRIP (VICI)
Over the selected period, investing $10,000 in VICI would grow to $40,677 with DRIP (306.8%), and $33,520 without DRIP (235.2%).
VICI Dividend Reinvestment Snowball
Investing $10,000 + $100/mo in VICI with historic price growth (5.96%) and dividend growth (6.94%) produces dramatically different outcomes depending on whether you reinvest dividends.
After 20 Years
Your Investment: $34,000
Portfolio: $227,501
Annual Dividend: $17,142
Yield on Cost: 50.42%
Total Dividends: $105,060
Portfolio: $128,378
Total Dividends: $51,134
After 30 Years
Your Investment: $46,000
Portfolio: $888,901
Annual Dividend: $73,430
Yield on Cost: 159.63%
Total Dividends: $474,734
Portfolio: $291,333
Total Dividends: $137,161
Milestones on the way
By year 13, the compounding really starts to show. Your total dividends collected reach $32,774 against a total investment of $25,600. At this point, your portfolio is throwing off $6,176 per year in dividends alone.
By year 17, the annual dividend climbs to around your initial contribution. For a starting investment of $10,000, the yearly dividend now sits at approximately $11,102, a powerful “income on autopilot” milestone.
After two decades, cumulative dividends total $105,060 versus $34,000 invested, nearly a 309% recovery of capital purely from income. Yield on cost reaches 50.42%.
At year 25, the income engine takes over. The portfolio’s annual dividend of $35,343 is greater than total contributions to date ($40,000), and cumulative dividends exceed $225,549.
By year 30, the DRIP snowball is in full force. Yearly income reaches $73,430, cumulative dividends total $474,734, and the DRIP portfolio value stands at $888,901, compared with $291,333 if dividends weren’t reinvested.
How we estimate these numbers
We use the latest calculator inputs for VICI, price $28.72, dividend per period $0.45 (4x/year), along with historic growth assumptions: price growth 5.96% and dividend growth 6.94% annually.
We simulate month by month for 30 years. Every month, a $100 contribution is added and converted to shares at that month’s price. Dividends are paid roughly evenly across the year based on the dividend frequency; in the DRIP path, each payout immediately buys additional shares at the then-current price. In the No-DRIP path, dividends accrue as cash. Prices grow using a monthly rate derived from the annual price growth. Dividends per share increase once per year at the annual dividend growth rate.
This model isn’t investment advice; it’s a simple, transparent framework that illustrates how reinvesting dividends can accelerate both income and total return over time.
Projected Future Returns & Dividends for VICI
Based on past 10-year performance, here are VICI growth metrics:
Dividend History: Payments & Yield
Shows quarterly dividend payments with trailing yield and a 5-year rolling average overlay. Use the range pills to switch the visible period.
| Date | Dividend | Share Price | Yield % | TTM Dividend | TTM Yield % |
|---|---|---|---|---|---|
| 2018-03-28 | $0.1600 | $18.27 | 0.88% | $0.1600 | 0.88% |
| 2018-06-27 | $0.2630 | $20.48 | 1.28% | $0.4230 | 2.07% |
| 2018-09-27 | $0.2880 | $21.15 | 1.36% | $0.7110 | 3.36% |
| 2018-12-27 | $0.2880 | $18.35 | 1.57% | $0.9990 | 5.44% |
| 2019-03-28 | $0.2880 | $21.80 | 1.32% | $1.1270 | 5.17% |
| 2019-06-27 | $0.2880 | $21.71 | 1.33% | $1.1520 | 5.31% |
| 2019-09-26 | $0.2980 | $22.50 | 1.32% | $1.1620 | 5.16% |
| 2019-12-26 | $0.2980 | $25.03 | 1.19% | $1.1720 | 4.68% |
| 2020-03-30 | $0.2980 | $16.04 | 1.86% | $1.1820 | 7.37% |
| 2020-06-29 | $0.2980 | $20.00 | 1.49% | $1.1920 | 5.96% |
| 2020-09-29 | $0.3300 | $23.39 | 1.41% | $1.2240 | 5.23% |
| 2020-12-22 | $0.3300 | $25.93 | 1.27% | $1.2560 | 4.84% |
| 2021-03-24 | $0.3300 | $26.93 | 1.23% | $1.2880 | 4.78% |
| 2021-06-23 | $0.3300 | $31.34 | 1.05% | $1.3200 | 4.21% |
| 2021-09-23 | $0.3600 | $30.02 | 1.20% | $1.3500 | 4.50% |
| 2021-12-22 | $0.3600 | $28.60 | 1.26% | $1.3800 | 4.83% |
| 2022-03-23 | $0.3600 | $27.15 | 1.33% | $1.4100 | 5.19% |
| 2022-06-22 | $0.3600 | $29.28 | 1.23% | $1.4400 | 4.92% |
| 2022-09-21 | $0.3900 | $32.02 | 1.22% | $1.4700 | 4.59% |
| 2022-12-21 | $0.3900 | $32.78 | 1.19% | $1.5000 | 4.58% |
| 2023-03-22 | $0.3900 | $30.34 | 1.29% | $1.5300 | 5.04% |
| 2023-06-21 | $0.3900 | $31.14 | 1.25% | $1.5600 | 5.01% |
| 2023-09-20 | $0.4150 | $30.66 | 1.35% | $1.5850 | 5.17% |
| 2023-12-20 | $0.4150 | $31.12 | 1.33% | $1.6100 | 5.17% |
| 2024-03-20 | $0.4150 | $28.82 | 1.44% | $1.6350 | 5.67% |
| 2024-06-18 | $0.4150 | $28.11 | 1.48% | $1.6600 | 5.91% |
| 2024-09-18 | $0.4330 | $33.06 | 1.31% | $1.6780 | 5.08% |
| 2024-12-17 | $0.4330 | $30.05 | 1.44% | $1.6960 | 5.64% |
| 2025-03-20 | $0.4330 | $32.01 | 1.35% | $1.7140 | 5.35% |
| 2025-06-18 | $0.4330 | $32.33 | 1.34% | $1.7320 | 5.36% |
| 2025-09-18 | $0.4500 | $32.12 | 1.40% | $1.7490 | 5.45% |
| 2025-12-17 | $0.4500 | $28.39 | 1.59% | $1.7660 | 6.22% |
| 2026-03-19 | $0.4500 | $27.98 | 1.61% | $1.7830 | 6.37% |
Dividend Growth
Lifetime quarterly dividend amounts, with range controls for 1Y/2Y/5Y/10Y. Useful to visualize the cadence and pace of dividend increases over time.
| Date | Dividend | Share Price | Yield % | QoQ Change |
|---|---|---|---|---|
| 2018-03-28 | $0.1600 | $18.27 | 0.88% | N/A |
| 2018-06-27 | $0.2630 | $20.48 | 1.28% | +64.4% |
| 2018-09-27 | $0.2880 | $21.15 | 1.36% | +9.5% |
| 2018-12-27 | $0.2880 | $18.35 | 1.57% | +0.0% |
| 2019-03-28 | $0.2880 | $21.80 | 1.32% | +0.0% |
| 2019-06-27 | $0.2880 | $21.71 | 1.33% | +0.0% |
| 2019-09-26 | $0.2980 | $22.50 | 1.32% | +3.5% |
| 2019-12-26 | $0.2980 | $25.03 | 1.19% | +0.0% |
| 2020-03-30 | $0.2980 | $16.04 | 1.86% | +0.0% |
| 2020-06-29 | $0.2980 | $20.00 | 1.49% | +0.0% |
| 2020-09-29 | $0.3300 | $23.39 | 1.41% | +10.7% |
| 2020-12-22 | $0.3300 | $25.93 | 1.27% | +0.0% |
| 2021-03-24 | $0.3300 | $26.93 | 1.23% | +0.0% |
| 2021-06-23 | $0.3300 | $31.34 | 1.05% | +0.0% |
| 2021-09-23 | $0.3600 | $30.02 | 1.20% | +9.1% |
| 2021-12-22 | $0.3600 | $28.60 | 1.26% | +0.0% |
| 2022-03-23 | $0.3600 | $27.15 | 1.33% | +0.0% |
| 2022-06-22 | $0.3600 | $29.28 | 1.23% | +0.0% |
| 2022-09-21 | $0.3900 | $32.02 | 1.22% | +8.3% |
| 2022-12-21 | $0.3900 | $32.78 | 1.19% | +0.0% |
| 2023-03-22 | $0.3900 | $30.34 | 1.29% | +0.0% |
| 2023-06-21 | $0.3900 | $31.14 | 1.25% | +0.0% |
| 2023-09-20 | $0.4150 | $30.66 | 1.35% | +6.4% |
| 2023-12-20 | $0.4150 | $31.12 | 1.33% | +0.0% |
| 2024-03-20 | $0.4150 | $28.82 | 1.44% | +0.0% |
| 2024-06-18 | $0.4150 | $28.11 | 1.48% | +0.0% |
| 2024-09-18 | $0.4330 | $33.06 | 1.31% | +4.3% |
| 2024-12-17 | $0.4330 | $30.05 | 1.44% | +0.0% |
| 2025-03-20 | $0.4330 | $32.01 | 1.35% | +0.0% |
| 2025-06-18 | $0.4330 | $32.33 | 1.34% | +0.0% |
| 2025-09-18 | $0.4500 | $32.12 | 1.40% | +3.9% |
| 2025-12-17 | $0.4500 | $28.39 | 1.59% | +0.0% |
| 2026-03-19 | $0.4500 | $27.98 | 1.61% | +0.0% |
Dividend Payments & Yield
Quarterly dividends with TTM yield and a 5âyear rolling average overlay. Helps compare current yield versus recent history across different ranges.
| Date | Dividend | TTM Yield | 5-yr Avg Yield | YoY Change |
|---|---|---|---|---|
| 2018-03-28 | $0.1600 | 0.88% | 0.88% | N/A |
| 2018-06-27 | $0.2630 | 2.07% | 1.47% | N/A |
| 2018-09-27 | $0.2880 | 3.36% | 2.10% | N/A |
| 2018-12-27 | $0.2880 | 5.44% | 2.94% | N/A |
| 2019-03-28 | $0.2880 | 5.17% | 3.38% | 604.4% |
| 2019-06-27 | $0.2880 | 5.31% | 3.70% | 172.3% |
| 2019-09-26 | $0.2980 | 5.16% | 3.91% | 63.4% |
| 2019-12-26 | $0.2980 | 4.68% | 4.01% | 17.3% |
| 2020-03-30 | $0.2980 | 7.37% | 4.38% | 4.9% |
| 2020-06-29 | $0.2980 | 5.96% | 4.54% | 3.5% |
| 2020-09-29 | $0.3300 | 5.23% | 4.60% | 5.3% |
| 2020-12-22 | $0.3300 | 4.84% | 4.62% | 7.2% |
| 2021-03-24 | $0.3300 | 4.78% | 4.64% | 9.0% |
| 2021-06-23 | $0.3300 | 4.21% | 4.61% | 10.7% |
| 2021-09-23 | $0.3600 | 4.50% | 4.60% | 10.3% |
| 2021-12-22 | $0.3600 | 4.83% | 4.61% | 9.9% |
| 2022-03-23 | $0.3600 | 5.19% | 4.65% | 9.5% |
| 2022-06-22 | $0.3600 | 4.92% | 4.66% | 9.1% |
| 2022-09-21 | $0.3900 | 4.59% | 4.66% | 8.9% |
| 2022-12-21 | $0.3900 | 4.58% | 4.65% | 8.7% |
| 2023-03-22 | $0.3900 | 5.04% | 4.86% | 8.5% |
| 2023-06-21 | $0.3900 | 5.01% | 5.01% | 8.3% |
| 2023-09-20 | $0.4150 | 5.17% | 5.10% | 7.8% |
| 2023-12-20 | $0.4150 | 5.17% | 5.09% | 7.3% |
| 2024-03-20 | $0.4150 | 5.67% | 5.11% | 6.9% |
| 2024-06-18 | $0.4150 | 5.91% | 5.14% | 6.4% |
| 2024-09-18 | $0.4330 | 5.08% | 5.14% | 5.9% |
| 2024-12-17 | $0.4330 | 5.64% | 5.18% | 5.3% |
| 2025-03-20 | $0.4330 | 5.35% | 5.08% | 4.8% |
| 2025-06-18 | $0.4330 | 5.36% | 5.05% | 4.3% |
| 2025-09-18 | $0.4500 | 5.45% | 5.06% | 4.2% |
| 2025-12-17 | $0.4500 | 6.22% | 5.13% | 4.1% |
| 2026-03-19 | $0.4500 | 6.37% | 5.21% | 4.0% |
VICI Dividend History
| Ex-Date | Payment Date | Amount | TTM Yield | Forward Yield | Price on Ex-Date |
|---|---|---|---|---|---|
| 03/19/2026 | 03/19/2026 | $0.450 | 6.37% | 6.43% | $27.98 |
| 12/17/2025 | 12/17/2025 | $0.450 | 6.22% | 6.34% | $28.39 |
| 09/18/2025 | 09/18/2025 | $0.450 | 5.45% | 5.60% | $32.12 |
| 06/18/2025 | 06/18/2025 | $0.433 | 5.36% | 5.36% | $32.33 |
| 03/20/2025 | 03/20/2025 | $0.433 | 5.35% | 5.41% | $32.01 |
| 12/17/2024 | 12/17/2024 | $0.433 | 5.64% | 5.76% | $30.05 |
| 09/18/2024 | 09/18/2024 | $0.433 | 5.08% | 5.24% | $33.06 |
| 06/18/2024 | 06/18/2024 | $0.415 | 5.91% | 5.91% | $28.11 |
| 03/20/2024 | 03/20/2024 | $0.415 | 5.67% | 5.76% | $28.82 |
| 12/20/2023 | 12/20/2023 | $0.415 | 5.17% | 5.33% | $31.12 |
| 09/20/2023 | 09/20/2023 | $0.415 | 5.17% | 5.41% | $30.66 |
| 06/21/2023 | 06/21/2023 | $0.390 | 5.01% | 5.01% | $31.14 |
| 03/22/2023 | 03/22/2023 | $0.390 | 5.04% | 5.14% | $30.34 |
| 12/21/2022 | 12/21/2022 | $0.390 | 4.58% | 4.76% | $32.78 |
| 09/21/2022 | 09/21/2022 | $0.390 | 4.59% | 4.87% | $32.02 |
| 06/22/2022 | 06/22/2022 | $0.360 | 4.92% | 4.92% | $29.28 |
| 03/23/2022 | 03/23/2022 | $0.360 | 5.19% | 5.30% | $27.15 |
| 12/22/2021 | 12/22/2021 | $0.360 | 4.83% | 5.04% | $28.60 |
| 09/23/2021 | 09/23/2021 | $0.360 | 4.50% | 4.80% | $30.02 |
| 06/23/2021 | 06/23/2021 | $0.330 | 4.21% | 4.21% | $31.34 |
| 03/24/2021 | 03/24/2021 | $0.330 | 4.78% | 4.90% | $26.93 |
| 12/22/2020 | 12/22/2020 | $0.330 | 4.84% | 5.09% | $25.93 |
| 09/29/2020 | 09/29/2020 | $0.330 | 5.23% | 5.64% | $23.39 |
| 06/29/2020 | 06/29/2020 | $0.298 | 5.96% | 5.96% | $20.00 |
| 03/30/2020 | 03/30/2020 | $0.298 | 7.37% | 7.43% | $16.04 |
| 12/26/2019 | 12/26/2019 | $0.298 | 4.68% | 4.76% | $25.03 |
| 09/26/2019 | 09/26/2019 | $0.298 | 5.16% | 5.30% | $22.50 |
| 06/27/2019 | 06/27/2019 | $0.288 | 5.31% | 5.31% | $21.71 |
| 03/28/2019 | 03/28/2019 | $0.288 | 5.17% | 5.28% | $21.80 |
| 12/27/2018 | 12/27/2018 | $0.288 | 5.44% | 6.28% | $18.35 |
| 09/27/2018 | 09/27/2018 | $0.288 | 3.36% | 5.45% | $21.15 |
| 06/27/2018 | 06/27/2018 | $0.263 | 2.07% | 5.14% | $20.48 |
| 03/28/2018 | 03/28/2018 | $0.160 | 0.88% | 3.50% | $18.27 |
Dividend Payout Ratio
Tracks the percentage of earnings paid out as dividends each quarter. Lower and stable ratios often indicate safer, more sustainable payouts.
| Date | Payout Ratio | QoQ Change | YoY Change |
|---|---|---|---|
| 2022-10-31 | 140.6% | N/A | N/A |
| 2023-01-31 | 111.5% | -20.7% | N/A |
| 2023-04-30 | 92.2% | -17.3% | N/A |
| 2023-07-31 | 78.0% | -15.4% | N/A |
| 2023-10-31 | 67.4% | -13.6% | -52.1% |
| 2024-01-31 | 67.5% | +0.1% | -39.5% |
| 2024-04-30 | 67.5% | 0.0% | -26.9% |
| 2024-07-31 | 67.4% | -0.1% | -13.7% |
| 2024-10-31 | 67.0% | -0.6% | -0.7% |
| 2025-01-31 | 67.1% | +0.2% | -0.5% |
| 2025-04-30 | 67.3% | +0.2% | -0.3% |
| 2025-07-31 | 67.3% | +0.1% | 0.0% |
| 2025-10-31 | 67.4% | +0.0% | +0.6% |
| 2025-12-31 | 38.4% | -43.0% | -42.7% |
Dividend to Free Cash Flow Ratio
Shows dividends as a percentage of free cash flow. Consistently high values may signal limited reinvestment capacity or potential dividend risk.
| Date | Dividend/FCF Ratio | QoQ Change | YoY Change |
|---|---|---|---|
| 2022-01-31 | 2,767.0% | N/A | N/A |
| 2022-04-30 | 2,466.2% | -10.9% | N/A |
| 2022-07-31 | 2,233.6% | -9.4% | N/A |
| 2022-10-31 | 2,048.2% | -8.3% | N/A |
| 2023-01-31 | 2,165.5% | +5.7% | -21.7% |
| 2023-04-30 | 1,926.9% | -11.0% | -21.9% |
| 2023-07-31 | 1,742.2% | -9.6% | -22.0% |
| 2023-10-31 | 1,590.1% | -8.7% | -22.4% |
| 2024-01-31 | 2,181.1% | +37.2% | +0.7% |
| 2024-04-30 | 1,932.2% | -11.4% | +0.3% |
| 2024-07-31 | 1,739.7% | -10.0% | -0.1% |
| 2024-10-31 | 1,579.7% | -9.2% | -0.7% |
| 2025-01-31 | 2,207.6% | +39.7% | +1.2% |
| 2025-04-30 | 1,946.2% | -11.8% | +0.7% |
| 2025-07-31 | 1,744.0% | -10.4% | +0.3% |
| 2025-10-31 | 1,582.0% | -9.3% | +0.1% |
| 2026-04-29 | 89.3% | -94.4% | -96.0% |
Share Price
Historical closing price with range controls. Table view includes quarterâoverâquarter and yearâoverâyear changes for additional context.
| Date | Share Price | Price Change | QoQ Change | YoY Change |
|---|---|---|---|---|
| 2018-03-28 | $18.27 | N/A | N/A | N/A |
| 2018-06-27 | $20.48 | +$2.21 | 64.4% | N/A |
| 2018-09-27 | $21.15 | +$0.67 | 9.5% | N/A |
| 2018-12-27 | $18.35 | $-2.80 | 0.0% | N/A |
| 2019-03-28 | $21.80 | +$3.45 | 0.0% | 80.0% |
| 2019-06-27 | $21.71 | $-0.09 | 0.0% | 9.5% |
| 2019-09-26 | $22.50 | +$0.79 | 3.5% | 3.5% |
| 2019-12-26 | $25.03 | +$2.53 | 0.0% | 3.5% |
| 2020-03-30 | $16.04 | $-8.99 | 0.0% | 3.5% |
| 2020-06-29 | $20.00 | +$3.96 | 0.0% | 3.5% |
| 2020-09-29 | $23.39 | +$3.39 | 10.7% | 10.7% |
| 2020-12-22 | $25.93 | +$2.54 | 0.0% | 10.7% |
| 2021-03-24 | $26.93 | +$1.00 | 0.0% | 10.7% |
| 2021-06-23 | $31.34 | +$4.41 | 0.0% | 10.7% |
| 2021-09-23 | $30.02 | $-1.32 | 9.1% | 9.1% |
| 2021-12-22 | $28.60 | $-1.42 | 0.0% | 9.1% |
| 2022-03-23 | $27.15 | $-1.45 | 0.0% | 9.1% |
| 2022-06-22 | $29.28 | +$2.13 | 0.0% | 9.1% |
| 2022-09-21 | $32.02 | +$2.74 | 8.3% | 8.3% |
| 2022-12-21 | $32.78 | +$0.76 | 0.0% | 8.3% |
| 2023-03-22 | $30.34 | $-2.44 | 0.0% | 8.3% |
| 2023-06-21 | $31.14 | +$0.80 | 0.0% | 8.3% |
| 2023-09-20 | $30.66 | $-0.48 | 6.4% | 6.4% |
| 2023-12-20 | $31.12 | +$0.46 | 0.0% | 6.4% |
| 2024-03-20 | $28.82 | $-2.30 | 0.0% | 6.4% |
| 2024-06-18 | $28.11 | $-0.71 | 0.0% | 6.4% |
| 2024-09-18 | $33.06 | +$4.95 | 4.3% | 4.3% |
| 2024-12-17 | $30.05 | $-3.01 | 0.0% | 4.3% |
| 2025-03-20 | $32.01 | +$1.96 | 0.0% | 4.3% |
| 2025-06-18 | $32.33 | +$0.32 | 0.0% | 4.3% |
| 2025-09-18 | $32.12 | $-0.21 | 3.9% | 3.9% |
| 2025-12-17 | $28.39 | $-3.73 | 0.0% | 3.9% |
| 2026-03-19 | $27.98 | $-0.41 | 0.0% | 3.9% |
Price to Earnings
VICI trades at a 50.9x price-to-earnings ratio. This elevated valuation suggests investors expect strong future growth.
| 2022-01-31 | 115.2x | N/A | Q-Est |
| 2022-04-30 | 107.0x | -7.1% | Q-Est |
| 2022-07-31 | 114.0x | +6.5% | Q-Est |
| 2022-10-31 | 114.2x | +0.2% | Q-Est |
| 2023-01-31 | 55.1x | -51.7% | Q-Est |
| 2023-04-30 | 57.0x | +3.5% | Q-Est |
| 2023-07-31 | 53.5x | -6.3% | Q-Est |
| 2023-10-31 | 49.5x | -7.4% | Q-Est |
| 2024-01-31 | 50.9x | +2.8% | Q-Est |
| 2024-04-30 | 47.8x | -6.1% | Q-Est |
| 2024-07-31 | 45.7x | -4.3% | Q-Est |
| 2024-10-31 | 53.2x | +16.3% | Q-Est |
| 2025-01-31 | 45.0x | -15.4% | Q-Est |
| 2025-03-31 | 58.5x | +30.1% | Q |
| 2025-04-30 | 50.1x | -14.5% | Q-Est |
| 2025-06-30 | 39.6x | -21.0% | Q |
| 2025-07-31 | 50.2x | +26.9% | Q-Est |
| 2025-09-30 | 47.4x | -5.6% | Q |
| 2025-10-31 | 50.2x | +6.0% | Q-Est |
| 2025-12-31 | 50.9x | +1.4% | Q |
Price to Sales
VICI trades at a 30.4x price-to-sales ratio, providing insight into market valuation relative to revenue generation.
| 2022-01-31 | 49.5x | N/A | Q-Est |
| 2022-04-30 | 46.0x | -7.1% | Q-Est |
| 2022-07-31 | 49.0x | +6.5% | Q-Est |
| 2022-10-31 | 49.1x | +0.2% | Q-Est |
| 2023-01-31 | 38.4x | -21.8% | Q-Est |
| 2023-04-30 | 39.7x | +3.5% | Q-Est |
| 2023-07-31 | 37.2x | -6.3% | Q-Est |
| 2023-10-31 | 34.4x | -7.4% | Q-Est |
| 2024-01-31 | 35.4x | +2.8% | Q-Est |
| 2024-04-30 | 33.2x | -6.1% | Q-Est |
| 2024-07-31 | 31.8x | -4.3% | Q-Est |
| 2024-10-31 | 37.0x | +16.3% | Q-Est |
| 2025-01-31 | 31.2x | -15.7% | Q-Est |
| 2025-03-31 | 32.3x | +3.7% | Q |
| 2025-04-30 | 34.7x | +7.2% | Q-Est |
| 2025-06-30 | 34.2x | -1.4% | Q |
| 2025-07-31 | 34.8x | +1.8% | Q-Est |
| 2025-09-30 | 35.8x | +3.0% | Q |
| 2025-10-31 | 34.8x | -2.9% | Q-Est |
| 2025-12-31 | 30.4x | -12.6% | Q |
Revenue
VICI generated $1.0B in revenue. Revenue has grown by 56% over the period.
| 2022-01-31 | $0.65B | N/A | Q-Est |
| 2022-04-30 | $0.65B | +0.0% | Q-Est |
| 2022-07-31 | $0.65B | +0.0% | Q-Est |
| 2022-10-31 | $0.65B | +0.0% | Q-Est |
| 2023-01-31 | $0.90B | +38.9% | Q-Est |
| 2023-04-30 | $0.90B | +0.0% | Q-Est |
| 2023-07-31 | $0.90B | +0.0% | Q-Est |
| 2023-10-31 | $0.90B | +0.0% | Q-Est |
| 2024-01-31 | $0.96B | +6.6% | Q-Est |
| 2024-04-30 | $0.96B | +0.0% | Q-Est |
| 2024-07-31 | $0.96B | +0.0% | Q-Est |
| 2024-10-31 | $0.96B | +0.0% | Q-Est |
| 2025-01-31 | $1.00B | +4.1% | Q-Est |
| 2025-03-31 | $0.98B | -1.7% | Q |
| 2025-04-30 | $1.00B | +1.8% | Q-Est |
| 2025-06-30 | $1.00B | 0.0% | Q |
| 2025-07-31 | $1.00B | +0.0% | Q-Est |
| 2025-09-30 | $1.01B | +0.6% | Q |
| 2025-10-31 | $1.00B | -0.6% | Q-Est |
| 2025-12-31 | $1.01B | +1.2% | Q |
Net Income
VICI reported $0.6B in net income. Net income has grown by 116% over the period.
| 2022-01-31 | $0.28B | N/A | Q-Est |
| 2022-04-30 | $0.28B | +0.0% | Q-Est |
| 2022-07-31 | $0.28B | +0.0% | Q-Est |
| 2022-10-31 | $0.28B | +0.0% | Q-Est |
| 2023-01-31 | $0.63B | +124.9% | Q-Est |
| 2023-04-30 | $0.63B | +0.0% | Q-Est |
| 2023-07-31 | $0.63B | +0.0% | Q-Est |
| 2023-10-31 | $0.63B | +0.0% | Q-Est |
| 2024-01-31 | $0.67B | +6.6% | Q-Est |
| 2024-04-30 | $0.67B | +0.0% | Q-Est |
| 2024-07-31 | $0.67B | +0.0% | Q-Est |
| 2024-10-31 | $0.67B | +0.0% | Q-Est |
| 2025-01-31 | $0.69B | +3.6% | Q-Est |
| 2025-03-31 | $0.54B | -21.7% | Q |
| 2025-04-30 | $0.69B | +27.6% | Q-Est |
| 2025-06-30 | $0.87B | +24.7% | Q |
| 2025-07-31 | $0.69B | -19.8% | Q-Est |
| 2025-09-30 | $0.76B | +9.8% | Q |
| 2025-10-31 | $0.69B | -8.9% | Q-Est |
| 2025-12-31 | $0.60B | -12.8% | Q |
Revenue vs Net Income
VICI generated $1.0B in revenue with net income of $0.6B, representing a 59.7% net profit margin.
| 2022-01-31 | $0.65B | $0.28B | Q-Est |
| 2022-04-30 | $0.65B | $0.28B | Q-Est |
| 2022-07-31 | $0.65B | $0.28B | Q-Est |
| 2022-10-31 | $0.65B | $0.28B | Q-Est |
| 2023-01-31 | $0.90B | $0.63B | Q-Est |
| 2023-04-30 | $0.90B | $0.63B | Q-Est |
| 2023-07-31 | $0.90B | $0.63B | Q-Est |
| 2023-10-31 | $0.90B | $0.63B | Q-Est |
| 2024-01-31 | $0.96B | $0.67B | Q-Est |
| 2024-04-30 | $0.96B | $0.67B | Q-Est |
| 2024-07-31 | $0.96B | $0.67B | Q-Est |
| 2024-10-31 | $0.96B | $0.67B | Q-Est |
| 2025-01-31 | $1.00B | $0.69B | Q-Est |
| 2025-03-31 | $0.98B | $0.54B | Q |
| 2025-04-30 | $1.00B | $0.69B | Q-Est |
| 2025-06-30 | $1.00B | $0.87B | Q |
| 2025-07-31 | $1.00B | $0.69B | Q-Est |
| 2025-09-30 | $1.01B | $0.76B | Q |
| 2025-10-31 | $1.00B | $0.69B | Q-Est |
| 2025-12-31 | $1.01B | $0.60B | Q |
Gross Profit
VICI achieved $0.8B in gross profit, showing revenue after direct production costs.
| 2022-01-31 | $0.43B | N/A | Q-Est |
| 2022-04-30 | $0.45B | +5.6% | Q-Est |
| 2022-07-31 | $0.44B | -3.2% | Q-Est |
| 2022-10-31 | $0.45B | +3.4% | Q-Est |
| 2023-01-31 | $0.69B | +53.7% | Q-Est |
| 2023-04-30 | $0.71B | +1.8% | Q-Est |
| 2023-07-31 | $0.70B | -0.3% | Q-Est |
| 2023-10-31 | $0.70B | -0.5% | Q-Est |
| 2024-01-31 | $0.79B | +12.5% | Q-Est |
| 2024-04-30 | $0.77B | -1.9% | Q-Est |
| 2024-07-31 | $0.78B | +0.6% | Q-Est |
| 2024-10-31 | $0.75B | -3.8% | Q-Est |
| 2025-01-31 | $0.81B | +8.4% | Q-Est |
| 2025-03-31 | $0.80B | -1.1% | Q-Est |
| 2025-04-30 | $0.79B | -1.0% | Q-Est |
| 2025-06-30 | $0.81B | +1.7% | Q-Est |
| 2025-07-31 | $0.82B | +1.7% | Q-Est |
| 2025-09-30 | $0.82B | -0.6% | Q-Est |
| 2025-10-31 | $0.80B | -2.0% | Q-Est |
| 2025-12-31 | $0.83B | +3.3% | Q-Est |
Operating Income
VICI generated $0.4B in operating income, representing profit from core business operations.
| 2022-01-31 | $0.23B | N/A | Q-Est |
| 2022-04-30 | $0.23B | +0.0% | Q-Est |
| 2022-07-31 | $0.23B | +0.0% | Q-Est |
| 2022-10-31 | $0.23B | +0.0% | Q-Est |
| 2023-01-31 | $0.32B | +38.9% | Q-Est |
| 2023-04-30 | $0.32B | +0.0% | Q-Est |
| 2023-07-31 | $0.32B | +0.0% | Q-Est |
| 2023-10-31 | $0.32B | +0.0% | Q-Est |
| 2024-01-31 | $0.34B | +6.6% | Q-Est |
| 2024-04-30 | $0.34B | +0.0% | Q-Est |
| 2024-07-31 | $0.34B | +0.0% | Q-Est |
| 2024-10-31 | $0.34B | +0.0% | Q-Est |
| 2025-01-31 | $0.35B | +4.1% | Q-Est |
| 2025-03-31 | $0.34B | -1.7% | Q-Est |
| 2025-04-30 | $0.35B | +1.8% | Q-Est |
| 2025-06-30 | $0.35B | 0.0% | Q-Est |
| 2025-07-31 | $0.35B | +0.0% | Q-Est |
| 2025-09-30 | $0.35B | +0.6% | Q-Est |
| 2025-10-31 | $0.35B | -0.6% | Q-Est |
| 2025-12-31 | $0.35B | +1.2% | Q-Est |
EBITDA
VICI generated $0.4B in EBITDA, measuring operational profitability before interest, taxes, depreciation, and amortization.
| 2022-01-31 | $0.26B | N/A | Q-Est |
| 2022-04-30 | $0.26B | +0.0% | Q-Est |
| 2022-07-31 | $0.26B | +0.0% | Q-Est |
| 2022-10-31 | $0.26B | +0.0% | Q-Est |
| 2023-01-31 | $0.36B | +38.9% | Q-Est |
| 2023-04-30 | $0.36B | +0.0% | Q-Est |
| 2023-07-31 | $0.36B | +0.0% | Q-Est |
| 2023-10-31 | $0.36B | +0.0% | Q-Est |
| 2024-01-31 | $0.39B | +6.6% | Q-Est |
| 2024-04-30 | $0.39B | +0.0% | Q-Est |
| 2024-07-31 | $0.39B | +0.0% | Q-Est |
| 2024-10-31 | $0.39B | +0.0% | Q-Est |
| 2025-01-31 | $0.40B | +4.1% | Q-Est |
| 2025-03-31 | $0.40B | -1.7% | Q-Est |
| 2025-04-30 | $0.40B | +1.8% | Q-Est |
| 2025-06-30 | $0.40B | 0.0% | Q-Est |
| 2025-07-31 | $0.40B | +0.0% | Q-Est |
| 2025-09-30 | $0.41B | +0.6% | Q-Est |
| 2025-10-31 | $0.40B | -0.6% | Q-Est |
| 2025-12-31 | $0.41B | +1.2% | Q-Est |
Operating Cash Flow
VICI generated $0.7B in operating cash flow, demonstrating the company’s ability to convert earnings into cash.
| 2022-01-31 | $0.32B | N/A | Q-Est |
| 2022-04-30 | $0.32B | +0.0% | Q-Est |
| 2022-07-31 | $0.32B | +0.0% | Q-Est |
| 2022-10-31 | $0.32B | +0.0% | Q-Est |
| 2023-01-31 | $0.72B | +124.9% | Q-Est |
| 2023-04-30 | $0.72B | +0.0% | Q-Est |
| 2023-07-31 | $0.72B | +0.0% | Q-Est |
| 2023-10-31 | $0.72B | +0.0% | Q-Est |
| 2024-01-31 | $0.77B | +6.6% | Q-Est |
| 2024-04-30 | $0.77B | +0.0% | Q-Est |
| 2024-07-31 | $0.77B | +0.0% | Q-Est |
| 2024-10-31 | $0.77B | +0.0% | Q-Est |
| 2025-01-31 | $0.80B | +3.6% | Q-Est |
| 2025-03-31 | $0.63B | -21.7% | Q-Est |
| 2025-04-30 | $0.80B | +27.6% | Q-Est |
| 2025-06-30 | $0.99B | +24.7% | Q-Est |
| 2025-07-31 | $0.80B | -19.8% | Q-Est |
| 2025-09-30 | $0.88B | +9.8% | Q-Est |
| 2025-10-31 | $0.80B | -8.9% | Q-Est |
| 2025-12-31 | $0.70B | -12.8% | Q-Est |
Free Cash Flow
VICI generated $0.7B in free cash flow. Free cash flow has increased by 121% over the period.
| 2022-01-31 | $0.30B | N/A | Q-Est |
| 2022-04-30 | $0.30B | +0.0% | Q-Est |
| 2022-07-31 | $0.30B | +0.0% | Q-Est |
| 2022-10-31 | $0.30B | +0.0% | Q-Est |
| 2023-01-31 | $0.69B | +131.5% | Q-Est |
| 2023-04-30 | $0.69B | +0.0% | Q-Est |
| 2023-07-31 | $0.69B | +0.0% | Q-Est |
| 2023-10-31 | $0.69B | +0.0% | Q-Est |
| 2024-01-31 | $0.74B | +6.6% | Q-Est |
| 2024-04-30 | $0.74B | +0.0% | Q-Est |
| 2024-07-31 | $0.74B | +0.0% | Q-Est |
| 2024-10-31 | $0.74B | +0.0% | Q-Est |
| 2025-01-31 | $0.76B | +3.6% | Q-Est |
| 2025-03-31 | $0.59B | -22.6% | Q-Est |
| 2025-04-30 | $0.76B | +29.2% | Q-Est |
| 2025-06-30 | $0.96B | +25.8% | Q-Est |
| 2025-07-31 | $0.76B | -20.5% | Q-Est |
| 2025-09-30 | $0.84B | +10.2% | Q-Est |
| 2025-10-31 | $0.76B | -9.3% | Q-Est |
| 2025-12-31 | $0.66B | -13.5% | Q-Est |
Free Cash Flow / Share
VICI generates $0.62 in free cash flow per share. FCF per share has grown by 121% over the period.
| 2022-01-31 | $0.28 | N/A | Q-Est |
| 2022-04-30 | $0.28 | +0.0% | Q-Est |
| 2022-07-31 | $0.28 | +0.0% | Q-Est |
| 2022-10-31 | $0.28 | +0.0% | Q-Est |
| 2023-01-31 | $0.65 | +131.5% | Q-Est |
| 2023-04-30 | $0.65 | +0.0% | Q-Est |
| 2023-07-31 | $0.65 | +0.0% | Q-Est |
| 2023-10-31 | $0.65 | +0.0% | Q-Est |
| 2024-01-31 | $0.69 | +6.6% | Q-Est |
| 2024-04-30 | $0.69 | +0.0% | Q-Est |
| 2024-07-31 | $0.69 | +0.0% | Q-Est |
| 2024-10-31 | $0.69 | +0.0% | Q-Est |
| 2025-01-31 | $0.71 | +3.6% | Q-Est |
| 2025-03-31 | $0.55 | -22.6% | Q-Est |
| 2025-04-30 | $0.71 | +29.2% | Q-Est |
| 2025-06-30 | $0.90 | +25.8% | Q-Est |
| 2025-07-31 | $0.71 | -20.5% | Q-Est |
| 2025-09-30 | $0.79 | +10.2% | Q-Est |
| 2025-10-31 | $0.71 | -9.3% | Q-Est |
| 2025-12-31 | $0.62 | -13.5% | Q-Est |
Earnings Per Share (EPS)
VICI reported $0.57 in earnings per share. EPS has grown by 116% over the period.
| 2022-01-31 | $0.26 | N/A | Q-Est |
| 2022-04-30 | $0.26 | +0.0% | Q-Est |
| 2022-07-31 | $0.26 | +0.0% | Q-Est |
| 2022-10-31 | $0.26 | +0.0% | Q-Est |
| 2023-01-31 | $0.59 | +124.9% | Q-Est |
| 2023-04-30 | $0.59 | +0.0% | Q-Est |
| 2023-07-31 | $0.59 | +0.0% | Q-Est |
| 2023-10-31 | $0.59 | +0.0% | Q-Est |
| 2024-01-31 | $0.63 | +6.6% | Q-Est |
| 2024-04-30 | $0.63 | +0.0% | Q-Est |
| 2024-07-31 | $0.63 | +0.0% | Q-Est |
| 2024-10-31 | $0.63 | +0.0% | Q-Est |
| 2025-01-31 | $0.65 | +3.6% | Q-Est |
| 2025-03-31 | $0.51 | -21.7% | Q |
| 2025-04-30 | $0.65 | +27.6% | Q-Est |
| 2025-06-30 | $0.81 | +24.7% | Q |
| 2025-07-31 | $0.65 | -19.8% | Q-Est |
| 2025-09-30 | $0.71 | +9.8% | Q |
| 2025-10-31 | $0.65 | -8.9% | Q-Est |
| 2025-12-31 | $0.57 | -12.8% | Q |
Return on Equity (ROE)
VICI delivered a 49.8% return on equity, indicating how effectively the company generates returns for shareholders.
| 2022-01-31 | 35.8% | N/A | Q-Est |
| 2022-04-30 | 35.8% | +0.0% | Q-Est |
| 2022-07-31 | 35.8% | +0.0% | Q-Est |
| 2022-10-31 | 35.8% | +0.0% | Q-Est |
| 2023-01-31 | 58.0% | +61.9% | Q-Est |
| 2023-04-30 | 58.0% | +0.0% | Q-Est |
| 2023-07-31 | 58.0% | +0.0% | Q-Est |
| 2023-10-31 | 58.0% | +0.0% | Q-Est |
| 2024-01-31 | 58.0% | +0.0% | Q-Est |
| 2024-04-30 | 58.0% | +0.0% | Q-Est |
| 2024-07-31 | 58.0% | +0.0% | Q-Est |
| 2024-10-31 | 58.0% | +0.0% | Q-Est |
| 2025-01-31 | 57.7% | -0.4% | Q-Est |
| 2025-03-31 | 46.0% | -20.3% | Q-Est |
| 2025-04-30 | 57.7% | +25.4% | Q-Est |
| 2025-06-30 | 72.0% | +24.7% | Q-Est |
| 2025-07-31 | 57.7% | -19.8% | Q-Est |
| 2025-09-30 | 63.0% | +9.2% | Q-Est |
| 2025-10-31 | 57.7% | -8.4% | Q-Est |
| 2025-12-31 | 49.8% | -13.8% | Q-Est |
Return on Assets (ROA)
VICI achieved a 29.9% return on assets, measuring how efficiently the company uses its assets to generate profit.
| 2022-01-31 | 21.5% | N/A | Q-Est |
| 2022-04-30 | 21.5% | +0.0% | Q-Est |
| 2022-07-31 | 21.5% | +0.0% | Q-Est |
| 2022-10-31 | 21.5% | +0.0% | Q-Est |
| 2023-01-31 | 34.8% | +61.9% | Q-Est |
| 2023-04-30 | 34.8% | +0.0% | Q-Est |
| 2023-07-31 | 34.8% | +0.0% | Q-Est |
| 2023-10-31 | 34.8% | +0.0% | Q-Est |
| 2024-01-31 | 34.8% | +0.0% | Q-Est |
| 2024-04-30 | 34.8% | +0.0% | Q-Est |
| 2024-07-31 | 34.8% | +0.0% | Q-Est |
| 2024-10-31 | 34.8% | +0.0% | Q-Est |
| 2025-01-31 | 34.6% | -0.5% | Q-Est |
| 2025-03-31 | 27.6% | -20.3% | Q-Est |
| 2025-04-30 | 34.6% | +25.4% | Q-Est |
| 2025-06-30 | 43.2% | +24.7% | Q-Est |
| 2025-07-31 | 34.6% | -19.8% | Q-Est |
| 2025-09-30 | 37.8% | +9.2% | Q-Est |
| 2025-10-31 | 34.6% | -8.4% | Q-Est |
| 2025-12-31 | 29.9% | -13.8% | Q-Est |
Net Profit Margin
VICI maintains a 59.7% net profit margin, showing the percentage of revenue retained as profit after all expenses.
| 2022-01-31 | 43.0% | N/A | Q-Est |
| 2022-04-30 | 43.0% | +0.0% | Q-Est |
| 2022-07-31 | 43.0% | +0.0% | Q-Est |
| 2022-10-31 | 43.0% | +0.0% | Q-Est |
| 2023-01-31 | 69.6% | +61.9% | Q-Est |
| 2023-04-30 | 69.6% | +0.0% | Q-Est |
| 2023-07-31 | 69.6% | +0.0% | Q-Est |
| 2023-10-31 | 69.6% | +0.0% | Q-Est |
| 2024-01-31 | 69.6% | +0.0% | Q-Est |
| 2024-04-30 | 69.6% | +0.0% | Q-Est |
| 2024-07-31 | 69.6% | +0.0% | Q-Est |
| 2024-10-31 | 69.6% | +0.0% | Q-Est |
| 2025-01-31 | 69.3% | -0.4% | Q-Est |
| 2025-03-31 | 55.2% | -20.3% | Q |
| 2025-04-30 | 69.3% | +25.4% | Q-Est |
| 2025-06-30 | 86.4% | +24.7% | Q |
| 2025-07-31 | 69.3% | -19.8% | Q-Est |
| 2025-09-30 | 75.6% | +9.2% | Q |
| 2025-10-31 | 69.3% | -8.4% | Q-Est |
| 2025-12-31 | 59.7% | -13.8% | Q |
Gross Profit Margin
VICI operates with a 81.7% gross profit margin, reflecting pricing power and cost efficiency in core operations.
| 2022-01-31 | 65.6% | N/A | Q-Est |
| 2022-04-30 | 69.3% | +5.6% | Q-Est |
| 2022-07-31 | 67.1% | -3.2% | Q-Est |
| 2022-10-31 | 69.4% | +3.4% | Q-Est |
| 2023-01-31 | 76.7% | +10.6% | Q-Est |
| 2023-04-30 | 78.2% | +1.8% | Q-Est |
| 2023-07-31 | 78.0% | -0.3% | Q-Est |
| 2023-10-31 | 77.6% | -0.5% | Q-Est |
| 2024-01-31 | 81.9% | +5.6% | Q-Est |
| 2024-04-30 | 80.4% | -1.9% | Q-Est |
| 2024-07-31 | 80.9% | +0.6% | Q-Est |
| 2024-10-31 | 77.8% | -3.8% | Q-Est |
| 2025-01-31 | 81.0% | +4.2% | Q-Est |
| 2025-03-31 | 81.6% | +0.7% | Q |
| 2025-04-30 | 79.3% | -2.7% | Q-Est |
| 2025-06-30 | 80.7% | +1.7% | Q |
| 2025-07-31 | 82.0% | +1.7% | Q-Est |
| 2025-09-30 | 81.1% | -1.2% | Q |
| 2025-10-31 | 79.9% | -1.4% | Q-Est |
| 2025-12-31 | 81.7% | +2.2% | Q |
Cash & Debt
VICI holds $0.2B in cash against $0.1B in debt, resulting in a net cash position of $0.1B.
| 2022-01-31 | $0.10B | $0.03B | $0.07B | Q-Est |
| 2022-04-30 | $0.10B | $0.03B | $0.07B | Q-Est |
| 2022-07-31 | $0.10B | $0.03B | $0.07B | Q-Est |
| 2022-10-31 | $0.10B | $0.03B | $0.07B | Q-Est |
| 2023-01-31 | $0.14B | $0.05B | $0.09B | Q-Est |
| 2023-04-30 | $0.14B | $0.05B | $0.09B | Q-Est |
| 2023-07-31 | $0.14B | $0.05B | $0.09B | Q-Est |
| 2023-10-31 | $0.14B | $0.05B | $0.09B | Q-Est |
| 2024-01-31 | $0.14B | $0.05B | $0.10B | Q-Est |
| 2024-04-30 | $0.14B | $0.05B | $0.10B | Q-Est |
| 2024-07-31 | $0.14B | $0.05B | $0.10B | Q-Est |
| 2024-10-31 | $0.14B | $0.05B | $0.10B | Q-Est |
| 2025-01-31 | $0.15B | $0.05B | $0.10B | Q-Est |
| 2025-03-31 | $0.15B | $0.05B | $0.10B | Q-Est |
| 2025-04-30 | $0.15B | $0.05B | $0.10B | Q-Est |
| 2025-06-30 | $0.15B | $0.05B | $0.10B | Q-Est |
| 2025-07-31 | $0.15B | $0.05B | $0.10B | Q-Est |
| 2025-09-30 | $0.15B | $0.05B | $0.10B | Q-Est |
| 2025-10-31 | $0.15B | $0.05B | $0.10B | Q-Est |
| 2025-12-31 | $0.15B | $0.05B | $0.10B | Q-Est |
Shares Outstanding
VICI has 1.1B shares outstanding.
| 2022-01-31 | 1.07B | N/A | Q-Est |
| 2022-04-30 | 1.07B | +0.0% | Q-Est |
| 2022-07-31 | 1.07B | +0.0% | Q-Est |
| 2022-10-31 | 1.07B | +0.0% | Q-Est |
| 2023-01-31 | 1.07B | +0.0% | Q-Est |
| 2023-04-30 | 1.07B | +0.0% | Q-Est |
| 2023-07-31 | 1.07B | +0.0% | Q-Est |
| 2023-10-31 | 1.07B | +0.0% | Q-Est |
| 2024-01-31 | 1.07B | +0.0% | Q-Est |
| 2024-04-30 | 1.07B | +0.0% | Q-Est |
| 2024-07-31 | 1.07B | +0.0% | Q-Est |
| 2024-10-31 | 1.07B | +0.0% | Q-Est |
| 2025-01-31 | 1.07B | +0.0% | Q-Est |
| 2025-03-31 | 1.07B | +0.0% | Q-Est |
| 2025-04-30 | 1.07B | +0.0% | Q-Est |
| 2025-06-30 | 1.07B | +0.0% | Q-Est |
| 2025-07-31 | 1.07B | +0.0% | Q-Est |
| 2025-09-30 | 1.07B | +0.0% | Q-Est |
| 2025-10-31 | 1.07B | +0.0% | Q-Est |
| 2025-12-31 | 1.07B | +0.0% | Q-Est |
Stock-Based Comp
VICI reported $0.0B in stock-based compensation. Over the period, stock-based compensation has increased by 56%.
| 2022-01-31 | $0.02B | N/A | Q-Est |
| 2022-04-30 | $0.02B | +0.0% | Q-Est |
| 2022-07-31 | $0.02B | +0.0% | Q-Est |
| 2022-10-31 | $0.02B | +0.0% | Q-Est |
| 2023-01-31 | $0.02B | +38.9% | Q-Est |
| 2023-04-30 | $0.02B | +0.0% | Q-Est |
| 2023-07-31 | $0.02B | +0.0% | Q-Est |
| 2023-10-31 | $0.02B | +0.0% | Q-Est |
| 2024-01-31 | $0.02B | +6.6% | Q-Est |
| 2024-04-30 | $0.02B | +0.0% | Q-Est |
| 2024-07-31 | $0.02B | +0.0% | Q-Est |
| 2024-10-31 | $0.02B | +0.0% | Q-Est |
| 2025-01-31 | $0.03B | +4.1% | Q-Est |
| 2025-03-31 | $0.02B | -1.7% | Q-Est |
| 2025-04-30 | $0.03B | +1.8% | Q-Est |
| 2025-06-30 | $0.03B | 0.0% | Q-Est |
| 2025-07-31 | $0.03B | +0.0% | Q-Est |
| 2025-09-30 | $0.03B | +0.6% | Q-Est |
| 2025-10-31 | $0.03B | -0.6% | Q-Est |
| 2025-12-31 | $0.03B | +1.2% | Q-Est |
FCF vs Stock Based Comp
VICI generated $0.7B in free cash flow while spending $0.0B on stock-based compensation, representing 4% of FCF.
| 2022-01-31 | $0.30B | $0.02B | Q-Est |
| 2022-04-30 | $0.30B | $0.02B | Q-Est |
| 2022-07-31 | $0.30B | $0.02B | Q-Est |
| 2022-10-31 | $0.30B | $0.02B | Q-Est |
| 2023-01-31 | $0.69B | $0.02B | Q-Est |
| 2023-04-30 | $0.69B | $0.02B | Q-Est |
| 2023-07-31 | $0.69B | $0.02B | Q-Est |
| 2023-10-31 | $0.69B | $0.02B | Q-Est |
| 2024-01-31 | $0.74B | $0.02B | Q-Est |
| 2024-04-30 | $0.74B | $0.02B | Q-Est |
| 2024-07-31 | $0.74B | $0.02B | Q-Est |
| 2024-10-31 | $0.74B | $0.02B | Q-Est |
| 2025-01-31 | $0.76B | $0.03B | Q-Est |
| 2025-03-31 | $0.59B | $0.02B | Q-Est |
| 2025-04-30 | $0.76B | $0.03B | Q-Est |
| 2025-06-30 | $0.96B | $0.03B | Q-Est |
| 2025-07-31 | $0.76B | $0.03B | Q-Est |
| 2025-09-30 | $0.84B | $0.03B | Q-Est |
| 2025-10-31 | $0.76B | $0.03B | Q-Est |
| 2025-12-31 | $0.66B | $0.03B | Q-Est |
FCF vs FCF / Share
VICI reported $0.7B in free cash flow, translating to $0.62 per share.
| 2022-01-31 | $0.30B | $0.28 | Q-Est |
| 2022-04-30 | $0.30B | $0.28 | Q-Est |
| 2022-07-31 | $0.30B | $0.28 | Q-Est |
| 2022-10-31 | $0.30B | $0.28 | Q-Est |
| 2023-01-31 | $0.69B | $0.65 | Q-Est |
| 2023-04-30 | $0.69B | $0.65 | Q-Est |
| 2023-07-31 | $0.69B | $0.65 | Q-Est |
| 2023-10-31 | $0.69B | $0.65 | Q-Est |
| 2024-01-31 | $0.74B | $0.69 | Q-Est |
| 2024-04-30 | $0.74B | $0.69 | Q-Est |
| 2024-07-31 | $0.74B | $0.69 | Q-Est |
| 2024-10-31 | $0.74B | $0.69 | Q-Est |
| 2025-01-31 | $0.76B | $0.71 | Q-Est |
| 2025-03-31 | $0.59B | $0.55 | Q-Est |
| 2025-04-30 | $0.76B | $0.71 | Q-Est |
| 2025-06-30 | $0.96B | $0.90 | Q-Est |
| 2025-07-31 | $0.76B | $0.71 | Q-Est |
| 2025-09-30 | $0.84B | $0.79 | Q-Est |
| 2025-10-31 | $0.76B | $0.71 | Q-Est |
| 2025-12-31 | $0.66B | $0.62 | Q-Est |
Revenue: Actual + Estimates
This chart tracks VICI revenue: actual + estimates metrics over time, providing insights into the company’s financial performance and trends.
| 2025-01-31 | $1.00B | Actual | Q-Est |
| 2025-01-31 | $0.98B | Estimate | Q-Est |
| 2025-03-31 | $0.98B | Actual | Q |
| 2025-03-31 | $0.96B | Estimate | Q |
| 2025-04-30 | $0.98B | Actual | Q |
| 2025-04-30 | $0.96B | Estimate | Q |
| 2025-06-30 | $1.00B | Actual | Q |
| 2025-06-30 | $0.98B | Estimate | Q |
| 2025-07-31 | $1.00B | Actual | Q-Est |
| 2025-07-31 | $0.98B | Estimate | Q-Est |
| 2025-09-30 | $1.01B | Actual | Q |
| 2025-09-30 | $0.99B | Estimate | Q |
| 2025-10-31 | $1.00B | Actual | Q-Est |
| 2025-10-31 | $0.98B | Estimate | Q-Est |
| 2025-12-31 | $1.01B | Actual | Q |
| 2025-12-31 | $1.02B | Estimate | Q |
| 2026-03-31 | $1.04B | Projection | F |
| 2026-06-30 | $1.07B | Projection | F |
| 2026-09-30 | $1.11B | Projection | F |
| 2026-12-31 | $1.14B | Projection | F |
EPS: Actual + Estimates
This chart tracks VICI eps: actual + estimates metrics over time, providing insights into the company’s financial performance and trends.
| 2025-01-31 | $0.65 | Actual | Q-Est |
| 2025-01-31 | $0.69 | Estimate | Q-Est |
| 2025-03-31 | $0.65 | Actual | Q-Est |
| 2025-03-31 | $0.69 | Estimate | Q-Est |
| 2025-04-30 | $0.65 | Actual | Q-Est |
| 2025-04-30 | $0.69 | Estimate | Q-Est |
| 2025-06-30 | $0.65 | Actual | Q-Est |
| 2025-06-30 | $0.70 | Estimate | Q-Est |
| 2025-07-31 | $0.81 | Actual | Q |
| 2025-07-31 | $0.70 | Estimate | Q |
| 2025-09-30 | $0.65 | Actual | Q-Est |
| 2025-09-30 | $0.69 | Estimate | Q-Est |
| 2025-10-31 | $0.71 | Actual | Q |
| 2025-10-31 | $0.69 | Estimate | Q |
| 2025-12-31 | $0.65 | Actual | Q-Est |
| 2025-12-31 | $0.70 | Estimate | Q-Est |
| 2026-03-31 | $0.69 | Projection | F |
| 2026-06-30 | $0.72 | Projection | F |
| 2026-09-30 | $0.76 | Projection | F |
| 2026-12-31 | $0.80 | Projection | F |
Net Income: Actual + Estimates
This chart tracks VICI net income: actual + estimates metrics over time, providing insights into the company’s financial performance and trends.
| 2025-01-31 | $0.69B | Actual | Q-Est |
| 2025-01-31 | $0.74B | Estimate | Q-Est |
| 2025-03-31 | $0.69B | Actual | Q-Est |
| 2025-03-31 | $0.74B | Estimate | Q-Est |
| 2025-04-30 | $0.69B | Actual | Q-Est |
| 2025-04-30 | $0.74B | Estimate | Q-Est |
| 2025-06-30 | $0.69B | Actual | Q-Est |
| 2025-06-30 | $0.75B | Estimate | Q-Est |
| 2025-07-31 | $0.87B | Actual | Q |
| 2025-07-31 | $0.75B | Estimate | Q |
| 2025-09-30 | $0.69B | Actual | Q-Est |
| 2025-09-30 | $0.74B | Estimate | Q-Est |
| 2025-10-31 | $0.76B | Actual | Q |
| 2025-10-31 | $0.74B | Estimate | Q |
| 2025-12-31 | $0.69B | Actual | Q-Est |
| 2025-12-31 | $0.75B | Estimate | Q-Est |
| 2026-03-31 | $0.74B | Projection | F |
| 2026-06-30 | $0.77B | Projection | F |
| 2026-09-30 | $0.81B | Projection | F |
| 2026-12-31 | $0.86B | Projection | F |
EBITDA: Actual + Estimates
This chart tracks VICI ebitda: actual + estimates metrics over time, providing insights into the company’s financial performance and trends.
| 2025-01-31 | $0.40B | Actual | Q-Est |
| 2025-01-31 | $0.40B | Estimate | Q-Est |
| 2025-03-31 | $0.40B | Actual | Q |
| 2025-03-31 | $0.39B | Estimate | Q |
| 2025-04-30 | $0.40B | Actual | Q |
| 2025-04-30 | $0.39B | Estimate | Q |
| 2025-06-30 | $0.40B | Actual | Q |
| 2025-06-30 | $0.39B | Estimate | Q |
| 2025-07-31 | $0.40B | Actual | Q-Est |
| 2025-07-31 | $0.40B | Estimate | Q-Est |
| 2025-09-30 | $0.40B | Actual | Q |
| 2025-09-30 | $0.40B | Estimate | Q |
| 2025-10-31 | $0.41B | Actual | Q-Est |
| 2025-10-31 | $0.40B | Estimate | Q-Est |
| 2025-12-31 | $0.40B | Actual | Q |
| 2025-12-31 | $0.41B | Estimate | Q |
| 2026-03-31 | $0.42B | Projection | F |
| 2026-06-30 | $0.43B | Projection | F |
| 2026-09-30 | $0.45B | Projection | F |
| 2026-12-31 | $0.46B | Projection | F |
Portfolio Growth Over Time
Data last updated: April 29, 2026 2:33 pm
Year-by-Year Portfolio Growth (Realistic DRIP Scenario)
| Year | Start Balance | Start Shares | Share Price | Dividend / Share | Dividend Yield | Yield on Cost | Annual Dividend | Total Dividends | End Shares | End Balance |
|---|---|---|---|---|---|---|---|---|---|---|
| 1 | $10,000 | 348 | $28.72 | $0.45 | 6.27% | 6.27% | $689 | $689 | 414 | $11,889 |
| 2 | $12,599 | 414 | $30.43 | $0.48 | 6.33% | 6.70% | $864 | $1,554 | 482 | $14,663 |
| 3 | $15,538 | 482 | $32.24 | $0.51 | 6.38% | 7.17% | $1,065 | $2,619 | 552 | $17,802 |
| 4 | $18,864 | 552 | $34.17 | $0.55 | 6.44% | 7.67% | $1,294 | $3,913 | 625 | $21,359 |
| 5 | $22,633 | 625 | $36.20 | $0.59 | 6.50% | 8.20% | $1,558 | $5,471 | 701 | $25,391 |
| 6 | $26,905 | 701 | $38.36 | $0.63 | 6.56% | 8.77% | $1,860 | $7,331 | 781 | $29,965 |
| 7 | $31,752 | 781 | $40.65 | $0.67 | 6.62% | 9.38% | $2,207 | $9,537 | 865 | $35,159 |
| 8 | $37,256 | 865 | $43.08 | $0.72 | 6.69% | 10.03% | $2,605 | $12,142 | 953 | $41,061 |
| 9 | $43,510 | 953 | $45.65 | $0.77 | 6.75% | 10.73% | $3,062 | $15,205 | 1,047 | $47,773 |
| 10 | $50,622 | 1,047 | $48.37 | $0.82 | 6.81% | 11.47% | $3,588 | $18,793 | 1,146 | $55,410 |
About VICI Properties Inc.
VICI Properties Inc. is an S&P 500 experiential real estate investment trust that owns one of the largest portfolios of market-leading gaming, hospitality, wellness, entertainment and leisure destinations, including Caesars Palace Las Vegas, MGM Grand and the
...